createdAt,value
2018-09-29T00:00:03.936Z,8.09
2018-09-29T00:01:05.316Z,8.12
2018-09-29T00:02:06.690Z,8.13
2018-09-29T00:03:08.076Z,8.04
2018-09-29T00:04:09.454Z,8.12
2018-09-29T00:05:10.827Z,8.03
2018-09-29T00:06:12.209Z,8.00
2018-09-29T00:07:13.613Z,8.04
2018-09-29T00:08:14.965Z,8.00
2018-09-29T00:09:16.345Z,8.00
2018-09-29T00:10:17.788Z,8.03
2018-09-29T00:11:19.053Z,8.14
2018-09-29T00:12:20.426Z,8.07
2018-09-29T00:13:21.799Z,8.07
2018-09-29T00:14:23.184Z,8.02
2018-09-29T00:15:24.546Z,8.06
2018-09-29T00:16:26.651Z,8.10
2018-09-29T00:17:28.014Z,8.03
2018-09-29T00:18:29.404Z,8.12
2018-09-29T00:19:30.776Z,7.91
2018-09-29T00:20:32.155Z,7.96
2018-09-29T00:21:33.533Z,7.95
2018-09-29T00:22:34.909Z,8.02
2018-09-29T00:23:36.284Z,8.04
2018-09-29T00:24:37.665Z,7.95
2018-09-29T00:25:39.048Z,7.96
2018-09-29T00:26:40.422Z,8.12
2018-09-29T00:27:41.802Z,8.09
2018-09-29T00:28:43.170Z,7.92
2018-09-29T00:29:44.554Z,8.02
2018-09-29T00:30:45.929Z,8.02
2018-09-29T00:31:47.304Z,7.99
2018-09-29T00:32:48.678Z,7.94
2018-09-29T00:33:50.059Z,7.94
2018-09-29T00:34:51.431Z,7.91
2018-09-29T00:35:52.807Z,7.95
2018-09-29T00:36:54.178Z,7.94
2018-09-29T00:37:55.560Z,7.95
2018-09-29T00:38:56.939Z,7.86
2018-09-29T00:39:58.325Z,7.88
2018-09-29T00:40:59.696Z,7.82
2018-09-29T00:42:01.087Z,7.88
2018-09-29T00:43:02.485Z,7.85
2018-09-29T00:44:03.875Z,7.88
2018-09-29T00:45:05.247Z,7.85
2018-09-29T00:46:06.757Z,7.84
2018-09-29T00:47:08.145Z,7.81
2018-09-29T00:48:09.522Z,7.81
2018-09-29T00:49:10.901Z,7.82
2018-09-29T00:50:12.271Z,7.81
2018-09-29T00:51:13.640Z,7.76
2018-09-29T00:52:15.022Z,7.79
2018-09-29T00:53:16.402Z,7.82
2018-09-29T00:54:17.780Z,7.69
2018-09-29T00:55:19.158Z,7.70
2018-09-29T00:56:20.538Z,7.74
2018-09-29T00:57:21.911Z,7.76
2018-09-29T00:58:23.298Z,7.73
2018-09-29T00:59:24.670Z,7.76
2018-09-29T01:00:26.756Z,7.69
2018-09-29T01:01:28.134Z,7.67
2018-09-29T01:02:29.507Z,7.74
2018-09-29T01:03:30.911Z,7.69
2018-09-29T01:04:32.259Z,7.63
2018-09-29T01:05:33.634Z,7.66
2018-09-29T01:06:35.017Z,7.60
2018-09-29T01:07:36.393Z,7.62
2018-09-29T01:08:37.769Z,7.69
2018-09-29T01:09:39.152Z,7.63
2018-09-29T01:10:40.527Z,7.67
2018-09-29T01:11:41.905Z,7.58
2018-09-29T01:12:43.267Z,7.62
2018-09-29T01:13:44.645Z,7.55
2018-09-29T01:14:46.020Z,7.58
2018-09-29T01:15:47.399Z,7.57
2018-09-29T01:16:48.779Z,7.58
2018-09-29T01:17:50.154Z,7.60
2018-09-29T01:18:51.539Z,7.58
2018-09-29T01:19:52.915Z,7.57
2018-09-29T01:20:54.295Z,7.57
2018-09-29T01:21:55.676Z,7.58
2018-09-29T01:22:57.058Z,7.63
2018-09-29T01:23:58.438Z,7.52
2018-09-29T01:24:59.816Z,7.55
2018-09-29T01:26:01.195Z,7.57
2018-09-29T01:27:02.561Z,7.51
2018-09-29T01:28:03.941Z,7.58
2018-09-29T01:29:05.320Z,7.58
2018-09-29T01:30:06.708Z,7.51
2018-09-29T01:31:08.078Z,7.45
2018-09-29T01:32:09.454Z,7.47
2018-09-29T01:33:10.841Z,7.48
2018-09-29T01:34:12.217Z,7.48
2018-09-29T01:35:13.596Z,7.51
2018-09-29T01:36:14.964Z,7.45
2018-09-29T01:37:16.343Z,7.42
2018-09-29T01:38:17.729Z,7.52
2018-09-29T01:39:19.098Z,7.51
2018-09-29T01:40:20.466Z,7.50
2018-09-29T01:41:21.843Z,7.44
2018-09-29T01:42:23.218Z,7.44
2018-09-29T01:43:24.596Z,7.42
2018-09-29T01:44:25.975Z,7.30
2018-09-29T01:45:27.346Z,7.34
2018-09-29T01:46:28.723Z,7.30
2018-09-29T01:47:30.094Z,7.41
2018-09-29T01:48:31.476Z,7.29
2018-09-29T01:49:32.840Z,7.37
2018-09-29T01:50:34.214Z,7.33
2018-09-29T01:51:35.596Z,7.34
2018-09-29T01:52:36.973Z,7.36
2018-09-29T01:53:38.345Z,7.36
2018-09-29T01:54:39.714Z,7.37
2018-09-29T01:55:41.090Z,7.33
2018-09-29T01:56:42.466Z,7.23
2018-09-29T01:57:43.841Z,7.29
2018-09-29T01:58:45.210Z,7.36
2018-09-29T01:59:46.575Z,7.27
2018-09-29T02:00:47.960Z,7.23
2018-09-29T02:01:49.331Z,7.27
2018-09-29T02:02:50.707Z,7.16
2018-09-29T02:03:52.078Z,7.21
2018-09-29T02:04:53.460Z,7.21
2018-09-29T02:05:54.837Z,7.23
2018-09-29T02:06:56.215Z,7.24
2018-09-29T02:07:57.633Z,7.24
2018-09-29T02:08:58.922Z,7.21
2018-09-29T02:10:00.307Z,7.23
2018-09-29T02:11:01.681Z,7.19
2018-09-29T02:12:03.067Z,7.15
2018-09-29T02:13:04.455Z,7.26
2018-09-29T02:14:05.823Z,7.16
2018-09-29T02:15:07.205Z,7.18
2018-09-29T02:16:08.581Z,7.18
2018-09-29T02:17:09.952Z,7.16
2018-09-29T02:18:11.328Z,7.18
2018-09-29T02:19:12.708Z,7.16
2018-09-29T02:20:14.088Z,7.16
2018-09-29T02:21:15.464Z,7.18
2018-09-29T02:22:16.834Z,7.18
2018-09-29T02:23:18.221Z,7.16
2018-09-29T02:24:19.596Z,7.16
2018-09-29T02:25:20.975Z,7.15
2018-09-29T02:26:22.348Z,7.15
2018-09-29T02:27:23.714Z,7.07
2018-09-29T02:28:25.088Z,7.12
2018-09-29T02:29:26.472Z,7.08
2018-09-29T02:30:27.844Z,7.08
2018-09-29T02:31:29.222Z,7.15
2018-09-29T02:32:30.594Z,7.11
2018-09-29T02:33:31.963Z,7.05
2018-09-29T02:34:33.343Z,7.14
2018-09-29T02:35:34.713Z,7.05
2018-09-29T02:36:36.095Z,7.07
2018-09-29T02:37:37.469Z,7.00
2018-09-29T02:38:38.843Z,7.09
2018-09-29T02:39:40.221Z,7.01
2018-09-29T02:40:41.595Z,7.05
2018-09-29T02:41:42.977Z,7.08
2018-09-29T02:42:44.358Z,7.05
2018-09-29T02:43:45.721Z,7.05
2018-09-29T02:44:47.094Z,7.00
2018-09-29T02:45:48.468Z,6.96
2018-09-29T02:46:49.848Z,7.07
2018-09-29T02:47:51.224Z,7.07
2018-09-29T02:48:52.597Z,7.04
2018-09-29T02:49:53.975Z,6.94
2018-09-29T02:50:55.390Z,6.96
2018-09-29T02:51:56.728Z,7.04
2018-09-29T02:52:58.110Z,6.96
2018-09-29T02:53:59.486Z,7.00
2018-09-29T02:55:00.860Z,6.99
2018-09-29T02:56:02.258Z,6.96
2018-09-29T02:57:03.614Z,6.97
2018-09-29T02:58:05.002Z,6.93
2018-09-29T02:59:06.372Z,6.93
2018-09-29T03:00:07.748Z,6.89
2018-09-29T03:01:09.132Z,6.93
2018-09-29T03:02:10.505Z,6.97
2018-09-29T03:03:11.880Z,6.94
2018-09-29T03:04:13.261Z,6.94
2018-09-29T03:05:14.627Z,6.87
2018-09-29T03:06:16.001Z,6.83
2018-09-29T03:07:17.504Z,6.83
2018-09-29T03:08:18.713Z,6.81
2018-09-29T03:09:20.085Z,6.79
2018-09-29T03:10:21.463Z,6.89
2018-09-29T03:11:22.839Z,6.91
2018-09-29T03:12:24.218Z,6.83
2018-09-29T03:13:25.596Z,6.79
2018-09-29T03:14:26.971Z,6.81
2018-09-29T03:15:28.346Z,6.89
2018-09-29T03:16:29.720Z,6.81
2018-09-29T03:17:31.094Z,6.91
2018-09-29T03:18:32.475Z,6.86
2018-09-29T03:19:33.848Z,6.86
2018-09-29T03:20:35.229Z,6.78
2018-09-29T03:21:36.609Z,6.81
2018-09-29T03:22:37.988Z,6.86
2018-09-29T03:23:39.359Z,6.82
2018-09-29T03:24:40.742Z,6.79
2018-09-29T03:25:42.109Z,6.79
2018-09-29T03:26:43.483Z,6.71
2018-09-29T03:27:44.860Z,6.69
2018-09-29T03:28:46.227Z,6.69
2018-09-29T03:29:47.599Z,6.71
2018-09-29T03:30:48.981Z,6.68
2018-09-29T03:31:50.518Z,6.68
2018-09-29T03:32:51.732Z,6.73
2018-09-29T03:33:53.115Z,6.72
2018-09-29T03:34:54.491Z,6.72
2018-09-29T03:35:55.861Z,6.65
2018-09-29T03:36:57.235Z,6.73
2018-09-29T03:37:58.599Z,6.69
2018-09-29T03:39:00.820Z,6.68
2018-09-29T03:40:02.223Z,6.68
2018-09-29T03:41:03.568Z,6.71
2018-09-29T03:42:04.936Z,6.64
2018-09-29T03:43:06.318Z,6.71
2018-09-29T03:44:07.694Z,6.69
2018-09-29T03:45:09.070Z,6.69
2018-09-29T03:46:10.454Z,6.68
2018-09-29T03:47:11.824Z,6.69
2018-09-29T03:48:13.210Z,6.64
2018-09-29T03:49:14.578Z,6.68
2018-09-29T03:50:15.951Z,6.69
2018-09-29T03:51:17.338Z,6.68
2018-09-29T03:52:18.700Z,6.55
2018-09-29T03:53:20.091Z,6.54
2018-09-29T03:54:21.474Z,6.58
2018-09-29T03:55:22.860Z,6.60
2018-09-29T03:56:24.229Z,6.60
2018-09-29T03:57:25.609Z,6.57
2018-09-29T03:58:26.983Z,6.61
2018-09-29T03:59:28.367Z,6.57
2018-09-29T04:00:29.743Z,6.60
2018-09-29T04:01:31.115Z,6.54
2018-09-29T04:02:32.489Z,6.54
2018-09-29T04:03:33.867Z,6.54
2018-09-29T04:04:35.244Z,6.53
2018-09-29T04:05:36.617Z,6.51
2018-09-29T04:06:37.989Z,6.54
2018-09-29T04:07:39.365Z,6.48
2018-09-29T04:08:40.746Z,6.53
2018-09-29T04:09:42.127Z,6.43
2018-09-29T04:10:43.501Z,6.53
2018-09-29T04:11:44.874Z,6.54
2018-09-29T04:12:46.250Z,6.61
2018-09-29T04:13:47.670Z,6.61
2018-09-29T04:14:48.998Z,6.54
2018-09-29T04:15:50.376Z,6.58
2018-09-29T04:16:51.749Z,6.58
2018-09-29T04:17:53.122Z,6.60
2018-09-29T04:18:54.500Z,6.60
2018-09-29T04:19:55.876Z,6.51
2018-09-29T04:20:57.258Z,6.51
2018-09-29T04:21:58.636Z,6.46
2018-09-29T04:23:00.007Z,6.45
2018-09-29T04:24:01.384Z,6.51
2018-09-29T04:25:02.748Z,6.40
2018-09-29T04:26:04.139Z,6.38
2018-09-29T04:27:05.513Z,6.43
2018-09-29T04:28:06.885Z,6.38
2018-09-29T04:29:08.265Z,6.40
2018-09-29T04:30:09.653Z,6.33
2018-09-29T04:31:11.016Z,6.25
2018-09-29T04:32:12.399Z,6.28
2018-09-29T04:33:13.775Z,6.32
2018-09-29T04:34:15.150Z,6.30
2018-09-29T04:35:16.528Z,6.35
2018-09-29T04:36:17.911Z,6.35
2018-09-29T04:37:19.285Z,6.28
2018-09-29T04:38:20.676Z,6.25
2018-09-29T04:39:22.052Z,6.25
2018-09-29T04:40:23.424Z,6.19
2018-09-29T04:41:24.797Z,6.27
2018-09-29T04:42:26.169Z,6.24
2018-09-29T04:43:27.546Z,6.17
2018-09-29T04:44:28.924Z,6.28
2018-09-29T04:45:30.296Z,6.25
2018-09-29T04:46:31.676Z,6.16
2018-09-29T04:47:33.079Z,6.21
2018-09-29T04:48:34.460Z,6.19
2018-09-29T04:49:35.827Z,6.20
2018-09-29T04:50:37.202Z,6.25
2018-09-29T04:51:38.578Z,6.11
2018-09-29T04:52:39.964Z,6.19
2018-09-29T04:53:41.336Z,6.19
2018-09-29T04:54:42.717Z,6.28
2018-09-29T04:55:44.092Z,6.19
2018-09-29T04:56:45.475Z,6.17
2018-09-29T04:57:46.856Z,6.21
2018-09-29T04:58:48.229Z,6.21
2018-09-29T04:59:49.605Z,6.30
2018-09-29T05:00:50.989Z,6.28
2018-09-29T05:01:52.363Z,6.28
2018-09-29T05:02:53.738Z,6.25
2018-09-29T05:03:55.109Z,6.30
2018-09-29T05:04:56.481Z,6.28
2018-09-29T05:05:57.861Z,6.27
2018-09-29T05:06:59.235Z,6.32
2018-09-29T05:08:00.614Z,6.28
2018-09-29T05:09:02.001Z,6.25
2018-09-29T05:10:03.373Z,6.30
2018-09-29T05:11:04.742Z,6.32
2018-09-29T05:12:06.121Z,6.40
2018-09-29T05:13:07.506Z,6.32
2018-09-29T05:14:08.888Z,6.43
2018-09-29T05:15:10.272Z,6.30
2018-09-29T05:16:11.660Z,6.33
2018-09-29T05:17:13.041Z,6.38
2018-09-29T05:18:14.418Z,6.40
2018-09-29T05:19:15.807Z,6.43
2018-09-29T05:20:17.167Z,6.46
2018-09-29T05:21:18.550Z,6.45
2018-09-29T05:22:19.934Z,6.42
2018-09-29T05:23:21.335Z,6.48
2018-09-29T05:24:22.652Z,6.43
2018-09-29T05:25:24.031Z,6.50
2018-09-29T05:26:25.413Z,6.50
2018-09-29T05:27:26.801Z,6.55
2018-09-29T05:28:28.185Z,6.53
2018-09-29T05:29:29.563Z,6.46
2018-09-29T05:30:30.955Z,6.42
2018-09-29T05:31:32.333Z,6.35
2018-09-29T05:32:33.711Z,6.27
2018-09-29T05:33:35.088Z,6.03
2018-09-29T05:34:36.473Z,5.98
2018-09-29T05:35:37.846Z,5.83
2018-09-29T05:36:39.220Z,5.78
2018-09-29T05:37:40.604Z,5.75
2018-09-29T05:38:41.976Z,5.81
2018-09-29T05:39:43.363Z,5.77
2018-09-29T05:40:44.742Z,5.73
2018-09-29T05:41:46.122Z,5.80
2018-09-29T05:42:47.506Z,5.77
2018-09-29T05:43:48.897Z,5.74
2018-09-29T05:44:50.269Z,5.77
2018-09-29T05:45:51.647Z,5.69
2018-09-29T05:46:53.024Z,5.77
2018-09-29T05:47:54.406Z,5.67
2018-09-29T05:48:55.781Z,5.65
2018-09-29T05:49:57.153Z,5.77
2018-09-29T05:50:58.543Z,5.67
2018-09-29T05:51:59.925Z,5.69
2018-09-29T05:53:01.315Z,5.70
2018-09-29T05:54:02.745Z,5.73
2018-09-29T05:55:04.099Z,5.73
2018-09-29T05:56:05.476Z,5.78
2018-09-29T05:57:06.852Z,5.80
2018-09-29T05:58:08.232Z,5.78
2018-09-29T05:59:09.616Z,5.78
2018-09-29T06:00:11.025Z,5.77
2018-09-29T06:01:12.333Z,5.81
2018-09-29T06:02:13.710Z,5.81
2018-09-29T06:03:15.090Z,5.85
2018-09-29T06:04:16.474Z,6.02
2018-09-29T06:05:17.890Z,6.03
2018-09-29T06:06:19.244Z,6.06
2018-09-29T06:07:20.747Z,6.13
2018-09-29T06:08:21.948Z,6.20
2018-09-29T06:09:23.325Z,6.28
2018-09-29T06:10:24.707Z,6.38
2018-09-29T06:11:26.080Z,6.57
2018-09-29T06:12:27.455Z,6.68
2018-09-29T06:13:28.839Z,6.91
2018-09-29T06:14:30.213Z,6.94
2018-09-29T06:15:31.601Z,7.05
2018-09-29T06:16:32.983Z,7.21
2018-09-29T06:17:34.368Z,7.14
2018-09-29T06:18:35.746Z,7.41
2018-09-29T06:19:37.125Z,7.42
2018-09-29T06:20:38.520Z,7.50
2018-09-29T06:21:39.914Z,7.66
2018-09-29T06:22:41.287Z,7.86
2018-09-29T06:23:42.668Z,7.91
2018-09-29T06:24:44.049Z,7.99
2018-09-29T06:25:45.428Z,8.14
2018-09-29T06:26:46.806Z,8.36
2018-09-29T06:27:48.213Z,8.47
2018-09-29T06:28:49.575Z,8.46
2018-09-29T06:29:50.959Z,8.52
2018-09-29T06:30:52.356Z,8.52
2018-09-29T06:31:53.735Z,8.71
2018-09-29T06:32:55.125Z,8.68
2018-09-29T06:33:56.505Z,8.73
2018-09-29T06:34:57.892Z,8.67
2018-09-29T06:35:59.281Z,8.71
2018-09-29T06:37:00.663Z,8.70
2018-09-29T06:38:02.060Z,8.78
2018-09-29T06:39:03.436Z,8.82
2018-09-29T06:40:04.842Z,8.75
2018-09-29T06:41:06.219Z,8.76
2018-09-29T06:42:07.621Z,8.76
2018-09-29T06:43:08.984Z,8.82
2018-09-29T06:44:10.361Z,8.91
2018-09-29T06:45:11.761Z,8.86
2018-09-29T06:46:13.146Z,8.97
2018-09-29T06:47:14.516Z,8.98
2018-09-29T06:48:15.904Z,9.17
2018-09-29T06:49:17.291Z,9.19
2018-09-29T06:50:18.676Z,9.35
2018-09-29T06:51:20.057Z,9.40
2018-09-29T06:52:21.447Z,9.59
2018-09-29T06:53:22.920Z,9.62
2018-09-29T06:54:24.236Z,9.78
2018-09-29T06:55:25.599Z,9.89
2018-09-29T06:56:26.986Z,9.98
2018-09-29T06:57:28.365Z,10.09
2018-09-29T06:58:29.750Z,10.11
2018-09-29T06:59:31.138Z,10.14
2018-09-29T07:00:32.527Z,10.28
2018-09-29T07:01:34.565Z,10.36
2018-09-29T07:02:35.961Z,10.43
2018-09-29T07:03:37.337Z,10.47
2018-09-29T07:04:38.731Z,10.72
2018-09-29T07:05:40.113Z,10.83
2018-09-29T07:06:41.499Z,10.99
2018-09-29T07:07:42.847Z,10.90
2018-09-29T07:08:44.233Z,11.01
2018-09-29T07:09:45.624Z,11.20
2018-09-29T07:10:47.019Z,11.27
2018-09-29T07:11:48.401Z,11.31
2018-09-29T07:12:49.799Z,11.48
2018-09-29T07:13:51.172Z,11.54
2018-09-29T07:14:52.565Z,11.53
2018-09-29T07:15:53.955Z,11.56
2018-09-29T07:16:55.339Z,11.70
2018-09-29T07:17:56.730Z,11.85
2018-09-29T07:18:58.118Z,11.90
2018-09-29T07:19:59.499Z,12.04
2018-09-29T07:21:00.896Z,12.12
2018-09-29T07:22:02.283Z,12.08
2018-09-29T07:23:03.686Z,12.15
2018-09-29T07:24:05.077Z,12.25
2018-09-29T07:25:06.467Z,12.30
2018-09-29T07:26:07.863Z,12.46
2018-09-29T07:27:09.261Z,12.61
2018-09-29T07:28:10.658Z,12.55
2018-09-29T07:29:12.043Z,12.61
2018-09-29T07:30:13.437Z,12.81
2018-09-29T07:31:14.872Z,12.76
2018-09-29T07:32:16.219Z,12.92
2018-09-29T07:33:17.606Z,12.99
2018-09-29T07:34:19.000Z,13.04
2018-09-29T07:35:20.397Z,13.04
2018-09-29T07:36:21.789Z,13.10
2018-09-29T07:37:23.179Z,13.14
2018-09-29T07:38:24.555Z,13.21
2018-09-29T07:39:25.951Z,13.16
2018-09-29T07:40:27.344Z,13.21
2018-09-29T07:41:28.732Z,13.32
2018-09-29T07:42:30.115Z,13.36
2018-09-29T07:43:31.511Z,13.41
2018-09-29T07:44:32.909Z,13.51
2018-09-29T07:45:34.311Z,13.62
2018-09-29T07:46:35.708Z,13.63
2018-09-29T07:47:37.054Z,13.81
2018-09-29T07:48:38.407Z,13.81
2018-09-29T07:49:39.756Z,13.87
2018-09-29T07:50:41.103Z,13.99
2018-09-29T07:51:42.452Z,14.11
2018-09-29T07:52:43.808Z,14.23
2018-09-29T07:53:45.193Z,14.30
2018-09-29T07:54:46.574Z,14.38
2018-09-29T07:55:47.974Z,14.45
2018-09-29T07:56:49.361Z,14.52
2018-09-29T07:57:50.755Z,14.80
2018-09-29T07:58:52.128Z,14.93
2018-09-29T07:59:53.533Z,15.22
2018-09-29T08:00:54.934Z,15.48
2018-09-29T08:01:56.336Z,15.95
2018-09-29T08:02:57.732Z,16.40
2018-09-29T08:03:59.128Z,16.96
2018-09-29T08:05:00.521Z,17.42
2018-09-29T08:06:01.913Z,17.53
2018-09-29T08:07:03.309Z,18.11
2018-09-29T08:08:04.704Z,18.35
2018-09-29T08:09:06.103Z,18.35
2018-09-29T08:10:07.501Z,18.50
2018-09-29T08:11:08.898Z,18.38
2018-09-29T08:12:10.315Z,18.21
2018-09-29T08:13:11.676Z,18.13
2018-09-29T08:14:13.082Z,17.81
2018-09-29T08:15:14.482Z,17.71
2018-09-29T08:16:15.886Z,17.71
2018-09-29T08:17:17.296Z,17.51
2018-09-29T08:18:18.689Z,17.22
2018-09-29T08:19:20.090Z,16.99
2018-09-29T08:20:21.502Z,16.92
2018-09-29T08:21:22.890Z,16.98
2018-09-29T08:22:24.292Z,16.75
2018-09-29T08:23:25.688Z,16.70
2018-09-29T08:24:27.161Z,16.62
2018-09-29T08:25:28.499Z,16.72
2018-09-29T08:26:29.901Z,16.84
2018-09-29T08:27:31.298Z,16.82
2018-09-29T08:28:32.684Z,16.95
2018-09-29T08:29:34.085Z,16.96
2018-09-29T08:30:35.472Z,17.10
2018-09-29T08:31:36.869Z,17.30
2018-09-29T08:32:38.287Z,17.28
2018-09-29T08:33:39.688Z,17.22
2018-09-29T08:34:41.098Z,17.35
2018-09-29T08:35:42.497Z,17.45
2018-09-29T08:36:43.916Z,17.51
2018-09-29T08:37:45.317Z,17.74
2018-09-29T08:38:46.699Z,17.84
2018-09-29T08:39:48.095Z,18.10
2018-09-29T08:40:49.492Z,18.05
2018-09-29T08:41:50.900Z,18.42
2018-09-29T08:42:52.298Z,18.46
2018-09-29T08:43:53.694Z,18.59
2018-09-29T08:44:55.121Z,18.93
2018-09-29T08:45:56.527Z,19.13
2018-09-29T08:46:57.920Z,19.27
2018-09-29T08:47:59.329Z,19.38
2018-09-29T08:49:00.736Z,19.76
2018-09-29T08:50:02.140Z,20.07
2018-09-29T08:51:03.538Z,20.00
2018-09-29T08:52:04.948Z,20.37
2018-09-29T08:53:06.411Z,20.56
2018-09-29T08:54:07.767Z,20.58
2018-09-29T08:55:10.051Z,20.73
2018-09-29T08:56:11.453Z,20.79
2018-09-29T08:57:12.854Z,21.05
2018-09-29T08:58:14.251Z,21.37
2018-09-29T08:59:15.660Z,21.38
2018-09-29T09:00:17.067Z,21.73
2018-09-29T09:01:18.483Z,21.96
2018-09-29T09:02:19.882Z,21.85
2018-09-29T09:03:21.287Z,22.31
2018-09-29T09:04:22.695Z,22.59
2018-09-29T09:05:24.904Z,23.23
2018-09-29T09:06:26.324Z,23.26
2018-09-29T09:07:27.738Z,23.34
2018-09-29T09:08:29.149Z,23.45
2018-09-29T09:09:30.627Z,23.75
2018-09-29T09:10:31.954Z,23.72
2018-09-29T09:11:33.349Z,23.38
2018-09-29T09:12:34.751Z,22.96
2018-09-29T09:13:36.145Z,22.46
2018-09-29T09:14:37.535Z,22.29
2018-09-29T09:15:38.938Z,22.06
2018-09-29T09:16:40.367Z,21.71
2018-09-29T09:17:41.736Z,21.56
2018-09-29T09:18:43.147Z,21.18
2018-09-29T09:19:44.534Z,21.03
2018-09-29T09:20:45.944Z,20.64
2018-09-29T09:21:47.337Z,20.38
2018-09-29T09:22:48.760Z,20.16
2018-09-29T09:23:50.157Z,20.00
2018-09-29T09:24:51.544Z,20.01
2018-09-29T09:25:52.949Z,19.90
2018-09-29T09:26:54.341Z,19.79
2018-09-29T09:27:55.751Z,19.62
2018-09-29T09:28:57.138Z,19.55
2018-09-29T09:29:58.589Z,19.60
2018-09-29T09:30:59.942Z,19.57
2018-09-29T09:32:01.339Z,19.46
2018-09-29T09:33:02.745Z,19.32
2018-09-29T09:34:04.139Z,19.21
2018-09-29T09:35:05.546Z,19.34
2018-09-29T09:36:06.958Z,19.27
2018-09-29T09:37:08.343Z,19.30
2018-09-29T09:38:09.749Z,19.28
2018-09-29T09:39:11.143Z,19.09
2018-09-29T09:40:12.540Z,19.13
2018-09-29T09:41:13.948Z,19.12
2018-09-29T09:42:15.349Z,19.07
2018-09-29T09:43:16.748Z,19.09
2018-09-29T09:44:18.138Z,19.12
2018-09-29T09:45:19.530Z,19.12
2018-09-29T09:46:20.925Z,18.89
2018-09-29T09:47:22.335Z,18.97
2018-09-29T09:48:23.727Z,19.06
2018-09-29T09:49:25.153Z,19.12
2018-09-29T09:50:26.522Z,19.17
2018-09-29T09:51:27.910Z,19.16
2018-09-29T09:52:29.314Z,19.31
2018-09-29T09:53:30.708Z,19.25
2018-09-29T09:54:32.102Z,19.17
2018-09-29T09:55:33.496Z,19.20
2018-09-29T09:56:34.888Z,19.05
2018-09-29T09:57:36.274Z,19.12
2018-09-29T09:58:37.670Z,19.06
2018-09-29T09:59:39.060Z,19.07
2018-09-29T10:00:40.465Z,19.12
2018-09-29T10:01:41.864Z,19.12
2018-09-29T10:02:43.259Z,19.23
2018-09-29T10:03:44.664Z,19.35
2018-09-29T10:04:46.067Z,19.32
2018-09-29T10:05:47.463Z,19.32
2018-09-29T10:06:48.852Z,19.38
2018-09-29T10:07:50.249Z,19.27
2018-09-29T10:08:51.634Z,19.24
2018-09-29T10:09:53.044Z,19.35
2018-09-29T10:10:54.458Z,19.31
2018-09-29T10:11:55.854Z,19.35
2018-09-29T10:12:57.257Z,19.32
2018-09-29T10:13:58.655Z,19.38
2018-09-29T10:15:00.057Z,19.39
2018-09-29T10:16:01.449Z,19.38
2018-09-29T10:17:02.847Z,19.31
2018-09-29T10:18:04.248Z,19.28
2018-09-29T10:19:05.641Z,19.30
2018-09-29T10:20:07.043Z,19.07
2018-09-29T10:21:08.430Z,19.05
2018-09-29T10:22:09.826Z,19.07
2018-09-29T10:23:11.226Z,19.05
2018-09-29T10:24:12.612Z,19.02
2018-09-29T10:25:14.014Z,19.06
2018-09-29T10:26:15.417Z,19.07
2018-09-29T10:27:16.811Z,19.01
2018-09-29T10:28:18.207Z,18.97
2018-09-29T10:29:19.614Z,18.91
2018-09-29T10:30:21.019Z,18.94
2018-09-29T10:31:22.407Z,18.86
2018-09-29T10:32:23.791Z,18.72
2018-09-29T10:33:25.191Z,18.64
2018-09-29T10:34:26.583Z,18.50
2018-09-29T10:35:27.965Z,18.41
2018-09-29T10:36:29.454Z,18.23
2018-09-29T10:37:30.769Z,18.11
2018-09-29T10:38:32.203Z,17.98
2018-09-29T10:39:33.598Z,17.77
2018-09-29T10:40:34.996Z,17.60
2018-09-29T10:41:36.398Z,17.53
2018-09-29T10:42:37.788Z,17.70
2018-09-29T10:43:39.190Z,17.73
2018-09-29T10:44:40.576Z,17.81
2018-09-29T10:45:41.984Z,17.83
2018-09-29T10:46:43.380Z,17.98
2018-09-29T10:47:44.777Z,17.96
2018-09-29T10:48:46.163Z,17.84
2018-09-29T10:49:47.556Z,17.63
2018-09-29T10:50:48.950Z,17.68
2018-09-29T10:51:50.342Z,17.73
2018-09-29T10:52:51.777Z,17.81
2018-09-29T10:53:53.123Z,17.87
2018-09-29T10:54:54.524Z,17.99
2018-09-29T10:55:55.918Z,18.01
2018-09-29T10:56:57.316Z,18.05
2018-09-29T10:57:58.719Z,18.16
2018-09-29T10:59:00.151Z,18.17
2018-09-29T11:00:01.519Z,18.19
2018-09-29T11:01:02.918Z,18.16
2018-09-29T11:02:04.309Z,18.17
2018-09-29T11:03:05.711Z,18.20
2018-09-29T11:04:07.097Z,18.31
2018-09-29T11:05:08.529Z,18.42
2018-09-29T11:06:09.843Z,18.39
2018-09-29T11:07:11.234Z,18.38
2018-09-29T11:08:12.642Z,18.29
2018-09-29T11:09:14.037Z,18.29
2018-09-29T11:10:15.455Z,18.39
2018-09-29T11:11:16.855Z,18.39
2018-09-29T11:12:18.241Z,18.19
2018-09-29T11:13:19.638Z,18.31
2018-09-29T11:14:21.055Z,18.19
2018-09-29T11:15:22.418Z,18.21
2018-09-29T11:16:23.823Z,18.21
2018-09-29T11:17:25.210Z,18.23
2018-09-29T11:18:26.606Z,18.11
2018-09-29T11:19:28.000Z,18.21
2018-09-29T11:20:29.403Z,18.16
2018-09-29T11:21:30.797Z,18.19
2018-09-29T11:22:32.187Z,18.23
2018-09-29T11:23:33.597Z,18.17
2018-09-29T11:24:34.989Z,18.17
2018-09-29T11:25:36.377Z,18.31
2018-09-29T11:26:37.766Z,18.20
2018-09-29T11:27:39.189Z,18.25
2018-09-29T11:28:40.565Z,18.31
2018-09-29T11:29:41.966Z,18.10
2018-09-29T11:30:43.345Z,18.25
2018-09-29T11:31:44.735Z,18.21
2018-09-29T11:32:46.135Z,18.17
2018-09-29T11:33:47.523Z,18.14
2018-09-29T11:34:48.915Z,18.17
2018-09-29T11:35:50.312Z,18.16
2018-09-29T11:36:51.706Z,18.19
2018-09-29T11:37:53.100Z,18.20
2018-09-29T11:38:54.497Z,18.26
2018-09-29T11:39:55.886Z,18.36
2018-09-29T11:40:57.273Z,18.35
2018-09-29T11:41:58.665Z,18.29
2018-09-29T11:43:00.081Z,18.34
2018-09-29T11:44:01.434Z,18.31
2018-09-29T11:45:02.830Z,18.36
2018-09-29T11:46:04.216Z,18.47
2018-09-29T11:47:05.624Z,18.51
2018-09-29T11:48:07.015Z,18.47
2018-09-29T11:49:08.398Z,18.47
2018-09-29T11:50:09.796Z,18.56
2018-09-29T11:51:11.180Z,18.35
2018-09-29T11:52:12.580Z,18.31
2018-09-29T11:53:13.968Z,18.11
2018-09-29T11:54:15.355Z,17.96
2018-09-29T11:55:16.748Z,17.83
2018-09-29T11:56:18.170Z,17.84
2018-09-29T11:57:19.536Z,17.86
2018-09-29T11:58:20.948Z,17.84
2018-09-29T11:59:22.324Z,17.84
2018-09-29T12:00:23.729Z,17.94
2018-09-29T12:01:25.120Z,17.99
2018-09-29T12:02:26.520Z,17.99
2018-09-29T12:03:27.909Z,18.07
2018-09-29T12:04:29.305Z,18.01
2018-09-29T12:05:30.695Z,17.98
2018-09-29T12:06:32.096Z,17.92
2018-09-29T12:07:33.538Z,17.84
2018-09-29T12:08:34.884Z,17.83
2018-09-29T12:09:36.279Z,17.71
2018-09-29T12:10:37.666Z,17.63
2018-09-29T12:11:39.057Z,17.58
2018-09-29T12:12:40.459Z,17.47
2018-09-29T12:13:41.859Z,17.49
2018-09-29T12:14:43.250Z,17.45
2018-09-29T12:15:44.656Z,17.51
2018-09-29T12:16:46.034Z,17.66
2018-09-29T12:17:47.437Z,17.80
2018-09-29T12:18:48.830Z,17.83
2018-09-29T12:19:50.221Z,17.83
2018-09-29T12:20:51.615Z,17.81
2018-09-29T12:21:53.012Z,17.80
2018-09-29T12:22:54.399Z,17.81
2018-09-29T12:23:55.789Z,17.86
2018-09-29T12:24:57.205Z,17.94
2018-09-29T12:25:58.578Z,18.04
2018-09-29T12:26:59.978Z,17.99
2018-09-29T12:28:01.370Z,18.14
2018-09-29T12:29:02.773Z,18.26
2018-09-29T12:30:04.167Z,18.19
2018-09-29T12:31:05.559Z,18.23
2018-09-29T12:32:06.956Z,18.29
2018-09-29T12:33:08.355Z,18.25
2018-09-29T12:34:09.743Z,18.16
2018-09-29T12:35:11.138Z,18.11
2018-09-29T19:36:06.037Z,11.08
2018-09-29T19:37:08.026Z,11.03
2018-09-29T19:38:11.240Z,10.98
2018-09-29T19:39:12.647Z,10.95
2018-09-29T19:40:15.024Z,10.99
2018-09-29T19:41:16.970Z,10.95
2018-09-29T19:42:20.177Z,10.93
2018-09-29T19:43:22.238Z,11.01
2018-09-29T19:44:22.983Z,10.98
2018-09-29T19:45:24.413Z,10.91
2018-09-29T19:46:25.788Z,10.91
2018-09-29T19:47:27.203Z,10.90
2018-09-29T19:48:28.622Z,10.86
2018-09-29T19:49:31.749Z,10.76
2018-09-29T19:50:32.529Z,10.76
2018-09-29T19:51:34.691Z,10.75
2018-09-29T19:52:37.051Z,10.70
2018-09-29T19:53:38.456Z,10.70
2018-09-29T19:54:41.406Z,10.70
2018-09-29T19:55:42.758Z,10.62
2018-09-29T19:56:44.193Z,10.68
2018-09-29T19:57:46.040Z,10.65
2018-09-29T19:58:47.491Z,10.58
2018-09-29T19:59:49.856Z,10.65
2018-09-29T20:00:51.244Z,10.60
2018-09-29T20:01:53.189Z,10.54
2018-09-29T20:02:54.588Z,10.54
2018-09-29T20:03:55.995Z,10.55
2018-09-29T20:04:57.424Z,10.54
2018-09-29T20:05:59.802Z,10.47
2018-09-29T20:07:02.309Z,10.46
2018-09-29T20:08:03.666Z,10.43
2018-09-29T20:09:05.079Z,10.49
2018-09-29T20:10:07.228Z,10.51
2018-09-29T20:11:08.720Z,10.51
2018-09-29T20:12:10.095Z,10.44
2018-09-29T20:13:12.343Z,10.51
2018-09-29T20:14:13.739Z,10.47
2018-09-29T20:15:15.206Z,10.46
2018-09-29T20:16:16.627Z,10.49
2018-09-29T20:17:17.976Z,10.47
2018-09-29T20:18:19.326Z,10.36
2018-09-29T20:19:21.608Z,10.36
2018-09-29T20:20:23.043Z,10.34
2018-09-29T20:21:24.486Z,10.31
2018-09-29T20:22:25.845Z,10.32
2018-09-29T20:23:27.492Z,10.29